Time;durP1;ratioP1;P1;durP2;ratioP2;P2;SDS_P1;SDS_P2;PMS_P1;PMS_P2;Temp;Humidity;BMP_temperature;BMP_pressure;BME280_temperature;BME280_humidity;BME280_pressure;Samples;Min_cycle;Max_cycle;Signal;HPM_P1;HPM_P2
2024/02/18 00:00:19;;;;;;;3.13;2.10;;;;;;;;;;5028841;28;58488;-73
2024/02/18 00:02:44;;;;;;;5.37;2.73;;;;;;;;;;5020313;28;59367;-73
2024/02/18 00:05:12;;;;;;;3.50;2.70;;;;;;;;;;5023859;28;58512;-74
2024/02/18 00:07:37;;;;;;;3.15;2.63;;;;;;;;;;5029619;28;58877;-77
2024/02/18 00:10:03;;;;;;;3.08;2.35;;;;;;;;;;5029359;28;58566;-73
2024/02/18 00:12:28;;;;;;;3.40;2.55;;;;;;;;;;5017318;28;59077;-72
2024/02/18 00:14:53;;;;;;;4.17;1.93;;;;;;;;;;5010655;28;60328;-74
2024/02/18 00:17:18;;;;;;;4.28;3.60;;;;;;;;;;5013858;28;58403;-75
2024/02/18 00:19:43;;;;;;;3.90;2.73;;;;;;;;;;5022208;28;58161;-73
2024/02/18 00:22:09;;;;;;;3.92;2.80;;;;;;;;;;5030532;28;58478;-72
2024/02/18 00:24:34;;;;;;;2.67;2.22;;;;;;;;;;5030858;28;58792;-73
2024/02/18 00:26:59;;;;;;;3.10;2.20;;;;;;;;;;5028591;28;58484;-75
2024/02/18 00:29:24;;;;;;;3.10;2.40;;;;;;;;;;5022710;28;58651;-72
2024/02/18 00:31:49;;;;;;;4.07;2.40;;;;;;;;;;5021763;28;58955;-72
2024/02/18 00:34:20;;;;;;;3.60;2.03;;;;;;;;;;5025984;28;58339;-72
2024/02/18 00:36:45;;;;;;;4.60;2.40;;;;;;;;;;5016661;28;58483;-72
2024/02/18 00:39:10;;;;;;;2.35;2.00;;;;;;;;;;5028802;28;58540;-72
2024/02/18 00:41:36;;;;;;;2.30;2.10;;;;;;;;;;5029185;28;58412;-73
2024/02/18 00:44:01;;;;;;;2.30;2.10;;;;;;;;;;5027455;28;58376;-72
2024/02/18 00:46:26;;;;;;;2.97;2.60;;;;;;;;;;5027309;28;58627;-72
2024/02/18 00:48:51;;;;;;;2.90;2.60;;;;;;;;;;5029612;28;60866;-72
2024/02/18 00:51:16;;;;;;;4.78;2.80;;;;;;;;;;5016932;28;59740;-73
2024/02/18 00:53:41;;;;;;;2.65;2.05;;;;;;;;;;5021331;28;58592;-72
2024/02/18 00:56:08;;;;;;;2.27;2.07;;;;;;;;;;5026441;28;60701;-73
2024/02/18 00:58:33;;;;;;;2.03;1.73;;;;;;;;;;5025574;28;58452;-77
2024/02/18 01:00:58;;;;;;;2.23;1.83;;;;;;;;;;5015635;28;60592;-77
2024/02/18 01:03:24;;;;;;;2.97;2.67;;;;;;;;;;5015639;28;58507;-77
2024/02/18 01:05:49;;;;;;;2.20;2.00;;;;;;;;;;5015875;28;58226;-77
2024/02/18 01:08:14;;;;;;;3.10;2.90;;;;;;;;;;5022110;28;59745;-78
2024/02/18 01:10:40;;;;;;;2.90;2.13;;;;;;;;;;5027563;28;59066;-77
2024/02/18 01:13:05;;;;;;;2.85;1.92;;;;;;;;;;5027881;28;58368;-77
2024/02/18 01:15:30;;;;;;;2.70;2.23;;;;;;;;;;5029424;28;59416;-77
2024/02/18 01:17:55;;;;;;;3.00;1.95;;;;;;;;;;5028516;28;59505;-77
2024/02/18 01:20:20;;;;;;;4.13;2.95;;;;;;;;;;5021298;28;59348;-71
2024/02/18 01:22:46;;;;;;;2.43;2.23;;;;;;;;;;5020404;28;58943;-73
2024/02/18 01:25:11;;;;;;;2.80;1.83;;;;;;;;;;5025383;28;58387;-70
2024/02/18 01:27:36;;;;;;;3.20;2.03;;;;;;;;;;5017358;28;58437;-70
2024/02/18 01:30:01;;;;;;;3.10;2.40;;;;;;;;;;5025560;28;58879;-70
2024/02/18 01:32:26;;;;;;;3.17;2.03;;;;;;;;;;5019782;28;59091;-71
2024/02/18 01:34:54;;;;;;;3.83;2.50;;;;;;;;;;5013638;28;60306;-71
2024/02/18 01:37:19;;;;;;;3.73;2.40;;;;;;;;;;5018337;28;59089;-73
2024/02/18 01:39:44;;;;;;;2.63;2.30;;;;;;;;;;5017146;28;59644;-71
2024/02/18 01:42:09;;;;;;;2.10;1.80;;;;;;;;;;5025042;28;58456;-71
2024/02/18 01:44:36;;;;;;;3.30;2.47;;;;;;;;;;5027208;28;58463;-71
2024/02/18 01:47:01;;;;;;;2.53;2.33;;;;;;;;;;5022196;28;58543;-71
2024/02/18 01:49:27;;;;;;;3.47;1.87;;;;;;;;;;5015511;28;58643;-72
2024/02/18 01:51:52;;;;;;;3.05;2.15;;;;;;;;;;5016894;28;58275;-74
2024/02/18 01:54:17;;;;;;;4.43;2.83;;;;;;;;;;5027796;28;64058;-72
2024/02/18 01:56:43;;;;;;;2.10;1.90;;;;;;;;;;5025056;28;58872;-70
2024/02/18 01:59:09;;;;;;;3.65;2.10;;;;;;;;;;5023937;28;58372;-71
2024/02/18 02:01:34;;;;;;;2.95;2.05;;;;;;;;;;5016665;28;58779;-71
2024/02/18 02:04:00;;;;;;;2.10;1.70;;;;;;;;;;5016388;28;58466;-71
2024/02/18 02:06:27;;;;;;;3.78;1.98;;;;;;;;;;5017174;28;59214;-70
2024/02/18 02:08:53;;;;;;;2.28;2.08;;;;;;;;;;5017058;28;58944;-71
2024/02/18 02:11:18;;;;;;;1.92;1.83;;;;;;;;;;5009462;28;58458;-72
2024/02/18 02:13:43;;;;;;;2.10;1.60;;;;;;;;;;5015237;28;60434;-71
2024/02/18 02:16:09;;;;;;;2.10;1.88;;;;;;;;;;5024704;28;58676;-72
2024/02/18 02:18:34;;;;;;;3.05;2.33;;;;;;;;;;5018390;28;58406;-72
2024/02/18 02:20:59;;;;;;;2.95;1.83;;;;;;;;;;5013778;28;59467;-72
2024/02/18 02:23:24;;;;;;;3.97;2.60;;;;;;;;;;5015803;28;58440;-72
2024/02/18 02:25:50;;;;;;;2.27;2.07;;;;;;;;;;5014184;28;59169;-72
2024/02/18 02:28:15;;;;;;;3.73;1.97;;;;;;;;;;5016490;28;58410;-72
2024/02/18 02:30:40;;;;;;;2.08;1.80;;;;;;;;;;5006841;28;77763;-78
2024/02/18 02:33:05;;;;;;;2.50;2.30;;;;;;;;;;5023357;28;59535;-77
2024/02/18 02:35:31;;;;;;;1.77;1.53;;;;;;;;;;5025316;28;58373;-77
2024/02/18 02:37:59;;;;;;;1.88;1.77;;;;;;;;;;5025030;28;58509;-77
2024/02/18 02:40:28;;;;;;;2.30;1.92;;;;;;;;;;5025064;28;59735;-78
2024/02/18 02:42:53;;;;;;;2.88;2.35;;;;;;;;;;5026233;28;58970;-78
2024/02/18 02:45:18;;;;;;;3.03;2.43;;;;;;;;;;5015449;28;59427;-77
2024/02/18 02:47:43;;;;;;;2.63;2.30;;;;;;;;;;5023226;28;58864;-77
2024/02/18 02:50:08;;;;;;;2.38;1.75;;;;;;;;;;5025357;28;58408;-77
2024/02/18 02:52:33;;;;;;;2.58;1.92;;;;;;;;;;5020342;28;58728;-77
2024/02/18 02:54:59;;;;;;;2.23;1.93;;;;;;;;;;5014248;28;58772;-77
2024/02/18 02:57:24;;;;;;;2.30;1.97;;;;;;;;;;5016684;28;58456;-77
2024/02/18 02:59:49;;;;;;;1.65;1.55;;;;;;;;;;5021840;28;59990;-77
2024/02/18 03:02:14;;;;;;;2.53;1.87;;;;;;;;;;5018889;28;58662;-78
2024/02/18 03:04:39;;;;;;;1.87;1.40;;;;;;;;;;5018610;28;58480;-77
2024/02/18 03:07:05;;;;;;;1.95;1.75;;;;;;;;;;5025916;28;58674;-77
2024/02/18 03:09:30;;;;;;;2.23;2.03;;;;;;;;;;5025306;28;58318;-76
2024/02/18 03:11:55;;;;;;;2.08;1.70;;;;;;;;;;5026399;28;59160;-77
2024/02/18 03:14:20;;;;;;;2.43;1.63;;;;;;;;;;5024408;28;59102;-77
2024/02/18 03:16:45;;;;;;;2.00;1.80;;;;;;;;;;5026896;28;58604;-77
2024/02/18 03:19:11;;;;;;;2.00;1.73;;;;;;;;;;5025531;28;60218;-77
2024/02/18 03:21:36;;;;;;;1.67;1.40;;;;;;;;;;5025360;28;59027;-77
2024/02/18 03:24:01;;;;;;;1.67;1.23;;;;;;;;;;5017658;28;58387;-77
2024/02/18 03:26:26;;;;;;;1.63;1.53;;;;;;;;;;5010198;28;60025;-78
2024/02/18 03:28:52;;;;;;;2.27;1.40;;;;;;;;;;5006935;28;58357;-77
2024/02/18 03:31:18;;;;;;;2.90;2.42;;;;;;;;;;5017680;28;59835;-77
2024/02/18 03:33:43;;;;;;;1.80;1.70;;;;;;;;;;5026396;28;59209;-78
2024/02/18 03:36:08;;;;;;;1.90;1.70;;;;;;;;;;5015168;28;58441;-78
2024/02/18 03:38:33;;;;;;;1.50;1.33;;;;;;;;;;5014969;28;59307;-78
2024/02/18 03:40:58;;;;;;;2.35;1.80;;;;;;;;;;5017400;28;59988;-77
2024/02/18 03:43:23;;;;;;;1.87;1.70;;;;;;;;;;5024713;28;58328;-77
2024/02/18 03:45:49;;;;;;;1.52;1.40;;;;;;;;;;5025919;28;58455;-77
2024/02/18 03:48:14;;;;;;;1.77;1.67;;;;;;;;;;5011289;28;58453;-78
2024/02/18 03:50:39;;;;;;;2.30;2.10;;;;;;;;;;5020661;28;59541;-78
2024/02/18 03:53:04;;;;;;;1.35;1.23;;;;;;;;;;5018693;28;59928;-77
2024/02/18 03:55:29;;;;;;;2.53;1.90;;;;;;;;;;5016880;28;58358;-77
2024/02/18 03:57:54;;;;;;;1.48;1.38;;;;;;;;;;5026577;28;59855;-77
2024/02/18 04:00:20;;;;;;;1.73;1.63;;;;;;;;;;5014408;28;58408;-77
2024/02/18 04:02:45;;;;;;;1.60;1.50;;;;;;;;;;5021477;28;58128;-77
2024/02/18 04:05:10;;;;;;;1.45;1.30;;;;;;;;;;5014670;28;59160;-77
2024/02/18 04:07:36;;;;;;;2.13;1.50;;;;;;;;;;5013218;28;58992;-77
2024/02/18 04:10:02;;;;;;;1.30;1.20;;;;;;;;;;5013352;28;60783;-77
2024/02/18 04:12:27;;;;;;;1.58;1.48;;;;;;;;;;5011547;28;58445;-77
2024/02/18 04:14:52;;;;;;;1.93;1.83;;;;;;;;;;5023874;28;58518;-76
2024/02/18 04:17:17;;;;;;;2.23;2.03;;;;;;;;;;5023730;28;59549;-78
2024/02/18 04:19:42;;;;;;;1.87;1.73;;;;;;;;;;5023183;28;58907;-77
2024/02/18 04:22:08;;;;;;;2.70;2.50;;;;;;;;;;5025015;28;58669;-77
2024/02/18 04:24:33;;;;;;;2.50;2.00;;;;;;;;;;5013517;28;58531;-77
2024/02/18 04:27:00;;;;;;;1.40;1.20;;;;;;;;;;5013074;28;58849;-77
2024/02/18 04:29:25;;;;;;;1.63;1.50;;;;;;;;;;5020423;28;58438;-77
2024/02/18 04:31:50;;;;;;;3.40;2.33;;;;;;;;;;5021510;28;58592;-77
2024/02/18 04:34:15;;;;;;;1.42;1.33;;;;;;;;;;5025869;28;58800;-77
2024/02/18 04:36:41;;;;;;;1.35;1.25;;;;;;;;;;5018853;28;60224;-77
2024/02/18 04:39:06;;;;;;;1.50;1.30;;;;;;;;;;5028762;28;58911;-73
2024/02/18 04:41:31;;;;;;;2.03;1.63;;;;;;;;;;5027979;28;58381;-72
2024/02/18 04:43:56;;;;;;;1.95;1.75;;;;;;;;;;5026362;28;58356;-72
2024/02/18 04:46:21;;;;;;;1.23;1.10;;;;;;;;;;5026706;28;58402;-72
2024/02/18 04:48:47;;;;;;;2.03;1.50;;;;;;;;;;5016532;28;58473;-77
2024/02/18 04:51:12;;;;;;;1.17;1.07;;;;;;;;;;5025158;28;58675;-77
2024/02/18 04:53:37;;;;;;;1.70;1.60;;;;;;;;;;5017869;28;58676;-77
2024/02/18 04:56:02;;;;;;;1.42;1.20;;;;;;;;;;5018060;28;60271;-78
2024/02/18 04:58:27;;;;;;;1.40;1.30;;;;;;;;;;5015898;28;58931;-78
2024/02/18 05:00:53;;;;;;;2.13;1.77;;;;;;;;;;5016502;28;58595;-78
2024/02/18 05:03:18;;;;;;;1.93;1.20;;;;;;;;;;5015344;28;58655;-78
2024/02/18 05:05:43;;;;;;;1.93;1.67;;;;;;;;;;5025650;28;58501;-77
2024/02/18 05:08:08;;;;;;;1.75;1.50;;;;;;;;;;5022191;28;58784;-77
2024/02/18 05:10:33;;;;;;;1.40;1.30;;;;;;;;;;5019731;28;58655;-77
2024/02/18 05:12:58;;;;;;;2.00;1.40;;;;;;;;;;5027748;28;60695;-77
2024/02/18 05:15:24;;;;;;;1.88;1.48;;;;;;;;;;5027521;28;58407;-77
2024/02/18 05:17:49;;;;;;;1.93;1.83;;;;;;;;;;5025514;28;59011;-77
2024/02/18 05:20:14;;;;;;;1.33;1.23;;;;;;;;;;5023115;28;58441;-78
2024/02/18 05:22:40;;;;;;;1.40;1.30;;;;;;;;;;5016622;28;59547;-77
2024/02/18 05:25:05;;;;;;;1.23;1.10;;;;;;;;;;5019167;28;58844;-77
2024/02/18 05:27:30;;;;;;;1.95;1.55;;;;;;;;;;5027711;28;58527;-76
2024/02/18 05:29:56;;;;;;;1.20;1.03;;;;;;;;;;5011076;28;58351;-78
2024/02/18 05:32:22;;;;;;;1.80;1.55;;;;;;;;;;5020873;28;58959;-77
2024/02/18 05:34:47;;;;;;;2.83;1.30;;;;;;;;;;5023410;28;59738;-77
2024/02/18 05:37:12;;;;;;;2.13;1.42;;;;;;;;;;5012812;28;58775;-78
2024/02/18 05:39:37;;;;;;;2.20;1.20;;;;;;;;;;5016223;28;58450;-78
2024/02/18 05:42:03;;;;;;;2.00;1.80;;;;;;;;;;5023707;28;59861;-77
2024/02/18 05:44:28;;;;;;;0.90;0.90;;;;;;;;;;5019138;28;58574;-78
2024/02/18 05:46:53;;;;;;;2.40;1.50;;;;;;;;;;5017010;28;58614;-77
2024/02/18 05:49:18;;;;;;;2.13;0.97;;;;;;;;;;5016581;28;58366;-77
2024/02/18 05:51:43;;;;;;;1.80;1.53;;;;;;;;;;5009988;28;58442;-77
2024/02/18 05:54:08;;;;;;;2.17;1.50;;;;;;;;;;5014864;28;58224;-77
2024/02/18 05:56:33;;;;;;;1.20;1.10;;;;;;;;;;5019778;28;58283;-77
2024/02/18 05:58:59;;;;;;;1.30;1.17;;;;;;;;;;5028452;28;57878;-72
2024/02/18 06:01:24;;;;;;;1.03;0.93;;;;;;;;;;5026377;28;59369;-71
2024/02/18 06:03:49;;;;;;;1.75;1.48;;;;;;;;;;5014405;28;58447;-71
2024/02/18 06:06:14;;;;;;;1.83;1.50;;;;;;;;;;5015163;28;58509;-73
2024/02/18 06:08:40;;;;;;;1.33;1.23;;;;;;;;;;5014327;28;60354;-72
2024/02/18 06:11:08;;;;;;;1.27;1.13;;;;;;;;;;5017176;28;58377;-72
2024/02/18 06:13:34;;;;;;;1.30;1.20;;;;;;;;;;5026027;28;58465;-72
2024/02/18 06:15:59;;;;;;;1.23;0.95;;;;;;;;;;5027867;27;58188;-71
2024/02/18 06:18:24;;;;;;;1.30;1.20;;;;;;;;;;5031989;28;58456;-74
2024/02/18 06:20:49;;;;;;;1.25;1.13;;;;;;;;;;5024566;28;60868;-72
2024/02/18 06:23:14;;;;;;;1.30;1.20;;;;;;;;;;5026730;28;58426;-72
2024/02/18 06:25:39;;;;;;;1.70;1.50;;;;;;;;;;5023985;28;58493;-72
2024/02/18 06:28:08;;;;;;;1.07;0.93;;;;;;;;;;5026382;28;59207;-72
2024/02/18 06:30:34;;;;;;;1.48;1.38;;;;;;;;;;5013042;28;58910;-73
2024/02/18 06:33:00;;;;;;;1.25;1.15;;;;;;;;;;5015650;28;58310;-72
2024/02/18 06:35:25;;;;;;;1.90;1.63;;;;;;;;;;5010520;28;59416;-72
2024/02/18 06:37:50;;;;;;;1.33;0.95;;;;;;;;;;5017924;28;58611;-71
2024/02/18 06:40:16;;;;;;;1.23;1.10;;;;;;;;;;5016561;28;59736;-72
2024/02/18 06:42:41;;;;;;;1.45;1.35;;;;;;;;;;5027429;28;58536;-72
2024/02/18 06:45:06;;;;;;;0.77;0.77;;;;;;;;;;5015657;28;58407;-72
2024/02/18 06:47:31;;;;;;;1.45;1.35;;;;;;;;;;5018209;28;59486;-74
2024/02/18 06:49:56;;;;;;;1.35;0.82;;;;;;;;;;5015848;28;58661;-72
2024/02/18 06:52:23;;;;;;;1.13;1.05;;;;;;;;;;5011458;28;58439;-72
2024/02/18 06:54:48;;;;;;;1.30;1.20;;;;;;;;;;5015525;28;59471;-71
2024/02/18 06:57:13;;;;;;;1.70;1.60;;;;;;;;;;5013665;28;59822;-75
2024/02/18 06:59:38;;;;;;;1.20;0.83;;;;;;;;;;5026318;28;58538;-77
2024/02/18 07:02:03;;;;;;;1.23;1.10;;;;;;;;;;5023929;28;58827;-78
2024/02/18 07:04:28;;;;;;;2.30;1.27;;;;;;;;;;5022816;28;58453;-77
2024/02/18 07:06:54;;;;;;;1.13;1.00;;;;;;;;;;5014888;28;60219;-76
2024/02/18 07:09:19;;;;;;;1.42;1.33;;;;;;;;;;5026568;28;58752;-72
2024/02/18 07:11:44;;;;;;;2.85;1.20;;;;;;;;;;5018031;28;58528;-72
2024/02/18 07:14:10;;;;;;;1.38;1.00;;;;;;;;;;5025672;28;60126;-72
2024/02/18 07:16:35;;;;;;;1.40;0.93;;;;;;;;;;5024565;28;58613;-74
2024/02/18 07:19:00;;;;;;;0.95;0.80;;;;;;;;;;5029002;28;58366;-73
2024/02/18 07:21:25;;;;;;;1.23;1.13;;;;;;;;;;5010282;28;59112;-73
2024/02/18 07:23:51;;;;;;;1.40;1.30;;;;;;;;;;5007781;28;58601;-72
2024/02/18 07:26:16;;;;;;;1.17;1.08;;;;;;;;;;5005621;28;58926;-72
2024/02/18 07:28:41;;;;;;;1.43;1.33;;;;;;;;;;5010318;28;58797;-71
2024/02/18 07:31:07;;;;;;;1.30;1.20;;;;;;;;;;5015515;28;58646;-72
2024/02/18 07:33:32;;;;;;;1.33;1.15;;;;;;;;;;5005671;28;59282;-74
2024/02/18 07:35:57;;;;;;;1.27;1.17;;;;;;;;;;5007215;28;58431;-73
2024/02/18 07:38:23;;;;;;;1.13;1.05;;;;;;;;;;5007925;28;58428;-71
2024/02/18 07:40:48;;;;;;;1.20;1.10;;;;;;;;;;5013125;28;60560;-72
2024/02/18 07:43:14;;;;;;;1.02;0.93;;;;;;;;;;5024482;28;58440;-72
2024/02/18 07:45:40;;;;;;;1.52;1.10;;;;;;;;;;5014035;28;59484;-71
2024/02/18 07:48:05;;;;;;;1.00;0.93;;;;;;;;;;5005430;28;58747;-71
2024/02/18 07:50:30;;;;;;;1.17;1.10;;;;;;;;;;5010600;28;58379;-72
2024/02/18 07:52:56;;;;;;;1.07;0.97;;;;;;;;;;5013127;28;58354;-71
2024/02/18 07:55:21;;;;;;;1.10;1.10;;;;;;;;;;5020461;28;59243;-72
2024/02/18 07:57:46;;;;;;;1.27;1.00;;;;;;;;;;5022069;28;58507;-72
2024/02/18 08:00:11;;;;;;;0.82;0.82;;;;;;;;;;5011567;28;59126;-71
2024/02/18 08:02:37;;;;;;;1.35;1.13;;;;;;;;;;5022306;28;59021;-72
2024/02/18 08:05:02;;;;;;;1.25;0.95;;;;;;;;;;5019867;28;59474;-71
2024/02/18 08:07:27;;;;;;;1.60;1.43;;;;;;;;;;5011195;28;58440;-72
2024/02/18 08:09:52;;;;;;;1.40;1.30;;;;;;;;;;5016016;28;58510;-72
2024/02/18 08:12:17;;;;;;;1.30;1.20;;;;;;;;;;5028275;28;58667;-72
2024/02/18 08:14:43;;;;;;;1.00;0.90;;;;;;;;;;5014411;28;59986;-72
2024/02/18 08:17:08;;;;;;;1.37;1.17;;;;;;;;;;5017536;28;58481;-72
2024/02/18 08:19:34;;;;;;;3.17;1.48;;;;;;;;;;5020922;28;59504;-72
2024/02/18 08:21:59;;;;;;;1.20;1.10;;;;;;;;;;5009992;28;58777;-72
2024/02/18 08:24:24;;;;;;;1.10;1.07;;;;;;;;;;5014628;28;58505;-72
2024/02/18 08:26:49;;;;;;;1.20;1.10;;;;;;;;;;5013667;28;58670;-72
2024/02/18 08:29:14;;;;;;;1.20;1.10;;;;;;;;;;5019716;28;58841;-72
2024/02/18 08:31:39;;;;;;;1.30;1.20;;;;;;;;;;5025730;28;58555;-73
2024/02/18 08:34:05;;;;;;;2.08;1.52;;;;;;;;;;5024531;27;58795;-72
2024/02/18 08:36:30;;;;;;;3.75;2.10;;;;;;;;;;5025452;28;58429;-72
2024/02/18 08:38:55;;;;;;;1.30;1.20;;;;;;;;;;5024097;28;58749;-72
2024/02/18 08:41:20;;;;;;;0.87;0.80;;;;;;;;;;5016613;28;58953;-71
2024/02/18 08:43:52;;;;;;;2.43;1.20;;;;;;;;;;5016350;28;58375;-72
2024/02/18 08:46:17;;;;;;;2.30;1.40;;;;;;;;;;5026200;27;58554;-74
2024/02/18 08:48:42;;;;;;;1.40;1.30;;;;;;;;;;5026747;28;58437;-72
2024/02/18 08:51:08;;;;;;;2.42;2.13;;;;;;;;;;5025972;27;59255;-72
2024/02/18 08:53:33;;;;;;;0.80;0.75;;;;;;;;;;5023424;28;58851;-72
2024/02/18 08:55:58;;;;;;;2.60;1.42;;;;;;;;;;5022768;28;58427;-72
2024/02/18 08:58:24;;;;;;;1.30;1.20;;;;;;;;;;5018180;28;58604;-73
2024/02/18 09:00:49;;;;;;;3.20;1.20;;;;;;;;;;5025862;28;58763;-72
2024/02/18 09:03:14;;;;;;;1.37;1.07;;;;;;;;;;5028004;28;58404;-72
2024/02/18 09:05:40;;;;;;;1.80;1.60;;;;;;;;;;5017025;28;59651;-72
2024/02/18 09:08:06;;;;;;;1.48;1.38;;;;;;;;;;5020362;28;58738;-71
2024/02/18 09:10:31;;;;;;;3.08;1.30;;;;;;;;;;5026237;28;59403;-73
2024/02/18 09:13:00;;;;;;;2.10;1.33;;;;;;;;;;5024968;28;59768;-73
2024/02/18 09:15:26;;;;;;;0.75;0.75;;;;;;;;;;5026495;28;58440;-72
2024/02/18 09:17:51;;;;;;;2.35;1.35;;;;;;;;;;5025442;27;58427;-72
2024/02/18 09:20:16;;;;;;;1.33;1.23;;;;;;;;;;5027642;28;58508;-73
2024/02/18 09:22:41;;;;;;;2.92;1.05;;;;;;;;;;5026526;28;58342;-72
2024/02/18 09:25:06;;;;;;;1.40;1.27;;;;;;;;;;5027481;27;59028;-72
2024/02/18 09:27:32;;;;;;;1.93;1.50;;;;;;;;;;5029929;28;59485;-75
2024/02/18 09:29:57;;;;;;;1.50;1.40;;;;;;;;;;5019692;28;58614;-73
2024/02/18 09:32:22;;;;;;;2.20;1.10;;;;;;;;;;5014316;28;58341;-74
2024/02/18 09:34:47;;;;;;;2.23;1.30;;;;;;;;;;5016593;28;58353;-73
2024/02/18 09:37:12;;;;;;;1.85;1.40;;;;;;;;;;5026731;28;59167;-73
2024/02/18 09:39:38;;;;;;;1.13;0.77;;;;;;;;;;5027339;28;58947;-73
2024/02/18 09:42:04;;;;;;;1.90;1.53;;;;;;;;;;5026412;28;58729;-72
2024/02/18 09:44:31;;;;;;;1.80;1.27;;;;;;;;;;5027930;28;58672;-73
2024/02/18 09:46:58;;;;;;;2.33;2.13;;;;;;;;;;5024272;28;58398;-73
2024/02/18 09:49:24;;;;;;;2.50;1.13;;;;;;;;;;5029594;28;58384;-73
2024/02/18 09:51:52;;;;;;;1.65;1.52;;;;;;;;;;5024893;28;58387;-73
2024/02/18 09:54:18;;;;;;;6.57;1.60;;;;;;;;;;5018192;28;58789;-72
2024/02/18 09:56:43;;;;;;;2.90;1.15;;;;;;;;;;5023318;28;58771;-72
2024/02/18 09:59:09;;;;;;;1.40;1.33;;;;;;;;;;5028875;27;58445;-71
2024/02/18 10:01:34;;;;;;;3.08;1.50;;;;;;;;;;5022813;28;58307;-73
2024/02/18 10:03:59;;;;;;;2.57;1.47;;;;;;;;;;5019265;28;59121;-71
2024/02/18 10:06:24;;;;;;;1.30;1.10;;;;;;;;;;5027630;28;59378;-73
2024/02/18 10:08:54;;;;;;;3.33;1.75;;;;;;;;;;5019014;28;58319;-73
2024/02/18 10:11:20;;;;;;;1.80;0.95;;;;;;;;;;5019236;28;60122;-72
2024/02/18 10:13:46;;;;;;;2.67;1.17;;;;;;;;;;5014773;28;58466;-72
2024/02/18 10:16:11;;;;;;;3.85;1.35;;;;;;;;;;5016366;28;59377;-73
2024/02/18 10:18:36;;;;;;;2.83;1.65;;;;;;;;;;5025049;28;58804;-74
2024/02/18 10:21:02;;;;;;;0.95;0.82;;;;;;;;;;5028526;27;58409;-73
2024/02/18 10:23:27;;;;;;;1.20;1.10;;;;;;;;;;5028281;28;59368;-70
2024/02/18 10:25:52;;;;;;;2.10;1.75;;;;;;;;;;5026211;28;59023;-72
2024/02/18 10:28:18;;;;;;;2.37;1.10;;;;;;;;;;5025657;28;58583;-73
2024/02/18 10:30:44;;;;;;;1.15;1.15;;;;;;;;;;5017666;28;59086;-78
2024/02/18 10:33:09;;;;;;;2.28;1.42;;;;;;;;;;5015347;28;58797;-78
2024/02/18 10:35:34;;;;;;;1.43;1.20;;;;;;;;;;5014591;28;59267;-77
2024/02/18 10:37:59;;;;;;;2.83;1.37;;;;;;;;;;5020189;28;58865;-78
2024/02/18 10:40:24;;;;;;;1.50;1.40;;;;;;;;;;5025838;28;58568;-74
2024/02/18 10:42:54;;;;;;;1.35;1.17;;;;;;;;;;5026481;28;59508;-73
2024/02/18 10:45:24;;;;;;;1.30;1.10;;;;;;;;;;5025568;28;63270;-73
2024/02/18 10:47:52;;;;;;;1.95;1.00;;;;;;;;;;5016802;28;58358;-73
2024/02/18 10:50:17;;;;;;;;;;;;;;;;;;5017540;28;58900;-73
2024/02/18 10:52:48;;;;;;;2.40;1.53;;;;;;;;;;5018275;28;58778;-73
2024/02/18 10:55:15;;;;;;;2.50;1.75;;;;;;;;;;5023763;28;58420;-74
2024/02/18 10:57:54;;;;;;;2.65;1.27;;;;;;;;;;5014574;28;59091;-73
2024/02/18 11:00:22;;;;;;;3.53;1.77;;;;;;;;;;5039957;28;58516;-73
2024/02/18 11:02:54;;;;;;;3.40;1.65;;;;;;;;;;5023995;28;59517;-73
2024/02/18 11:05:20;;;;;;;2.30;1.63;;;;;;;;;;5025472;28;59319;-73
2024/02/18 11:07:46;;;;;;;2.03;1.83;;;;;;;;;;5021099;28;58648;-74
2024/02/18 11:10:11;;;;;;;1.00;0.95;;;;;;;;;;5020700;28;58911;-72
2024/02/18 11:12:37;;;;;;;1.60;1.17;;;;;;;;;;5026560;28;58937;-74
2024/02/18 11:15:03;;;;;;;1.85;1.52;;;;;;;;;;5027277;28;58450;-73
2024/02/18 11:17:29;;;;;;;1.50;0.88;;;;;;;;;;5025131;28;59775;-73
2024/02/18 11:19:55;;;;;;;2.08;1.17;;;;;;;;;;5027027;28;58395;-73
2024/02/18 11:22:21;;;;;;;2.60;1.35;;;;;;;;;;5026082;28;59353;-73
2024/02/18 11:24:48;;;;;;;1.75;1.48;;;;;;;;;;5025155;28;59549;-73
2024/02/18 11:27:13;;;;;;;1.40;1.15;;;;;;;;;;5024043;28;58519;-72
2024/02/18 11:29:50;;;;;;;2.45;1.17;;;;;;;;;;5017950;28;58616;-73
2024/02/18 11:32:15;;;;;;;1.85;1.13;;;;;;;;;;5020150;28;58406;-73
2024/02/18 11:34:42;;;;;;;1.58;1.40;;;;;;;;;;5024973;28;58395;-73
2024/02/18 11:37:26;;;;;;;1.30;1.00;;;;;;;;;;5023776;28;59644;-73
2024/02/18 11:39:55;;;;;;;1.67;1.10;;;;;;;;;;5019333;28;58488;-73
2024/02/18 11:42:20;;;;;;;2.17;1.20;;;;;;;;;;5030093;28;63590;-74
2024/02/18 11:44:45;;;;;;;2.58;1.70;;;;;;;;;;5013827;28;58609;-73
2024/02/18 11:47:13;;;;;;;2.03;1.20;;;;;;;;;;5013896;28;58413;-73
2024/02/18 11:49:39;;;;;;;2.65;1.35;;;;;;;;;;5020325;28;59192;-73
2024/02/18 11:52:04;;;;;;;2.13;1.60;;;;;;;;;;5030080;27;59309;-73
2024/02/18 11:54:29;;;;;;;1.08;0.88;;;;;;;;;;5030613;28;58596;-73
2024/02/18 11:56:54;;;;;;;3.50;1.47;;;;;;;;;;5028922;28;58876;-73
2024/02/18 11:59:20;;;;;;;1.20;0.80;;;;;;;;;;5022290;28;58752;-74
2024/02/18 12:01:45;;;;;;;3.63;1.20;;;;;;;;;;5022366;28;58626;-73
2024/02/18 12:04:10;;;;;;;2.25;1.30;;;;;;;;;;5027674;28;58782;-73
2024/02/18 12:06:35;;;;;;;1.80;1.43;;;;;;;;;;5020308;28;58420;-75
2024/02/18 12:09:09;;;;;;;2.13;1.27;;;;;;;;;;5011907;28;58582;-73
2024/02/18 12:11:41;;;;;;;3.00;1.55;;;;;;;;;;5014716;28;59331;-73
2024/02/18 12:14:07;;;;;;;1.88;1.33;;;;;;;;;;5024927;28;58419;-73
2024/02/18 12:16:33;;;;;;;3.47;1.63;;;;;;;;;;5025434;28;59431;-73
2024/02/18 12:18:58;;;;;;;2.53;1.75;;;;;;;;;;5016791;28;59607;-73
2024/02/18 12:21:23;;;;;;;1.83;1.42;;;;;;;;;;5020349;28;58424;-73
2024/02/18 12:23:49;;;;;;;3.00;1.58;;;;;;;;;;5014670;28;58772;-72
2024/02/18 12:26:14;;;;;;;2.50;1.40;;;;;;;;;;5016102;28;58516;-72
2024/02/18 12:28:39;;;;;;;3.70;1.50;;;;;;;;;;5015466;28;59607;-72
2024/02/18 12:31:04;;;;;;;4.22;1.58;;;;;;;;;;5006156;28;59104;-73
2024/02/18 12:33:31;;;;;;;3.37;1.07;;;;;;;;;;5016366;28;58466;-73
2024/02/18 12:35:56;;;;;;;2.42;1.65;;;;;;;;;;5026670;28;58700;-74
2024/02/18 12:38:21;;;;;;;3.60;1.30;;;;;;;;;;5022267;28;58405;-73
2024/02/18 12:40:52;;;;;;;3.10;1.63;;;;;;;;;;5021069;28;58499;-72
2024/02/18 12:43:17;;;;;;;3.33;1.38;;;;;;;;;;5024507;28;60496;-72
2024/02/18 12:45:43;;;;;;;3.63;1.57;;;;;;;;;;5019611;28;58457;-73
2024/02/18 12:48:08;;;;;;;2.60;1.85;;;;;;;;;;5023760;28;60593;-72
2024/02/18 12:50:33;;;;;;;5.90;1.87;;;;;;;;;;5028616;28;59219;-78
2024/02/18 12:52:58;;;;;;;2.05;0.90;;;;;;;;;;5027084;28;58187;-79
2024/02/18 12:55:25;;;;;;;4.10;1.80;;;;;;;;;;5026244;28;59854;-79
2024/02/18 12:57:50;;;;;;;2.30;1.52;;;;;;;;;;5016123;28;60104;-80
2024/02/18 13:00:17;;;;;;;3.00;1.20;;;;;;;;;;5027543;28;58571;-79
2024/02/18 13:02:46;;;;;;;4.35;2.00;;;;;;;;;;5028252;28;59566;-79
2024/02/18 13:05:15;;;;;;;4.28;2.13;;;;;;;;;;5022618;28;58704;-80
2024/02/18 13:07:51;;;;;;;3.13;1.58;;;;;;;;;;5012018;28;60558;-79
2024/02/18 13:10:16;;;;;;;4.13;1.85;;;;;;;;;;5019160;28;58952;-78
2024/02/18 13:12:41;;;;;;;4.33;1.40;;;;;;;;;;5027304;28;58607;-79
2024/02/18 13:15:09;;;;;;;2.90;1.33;;;;;;;;;;5018013;28;59431;-78
2024/02/18 13:17:34;;;;;;;2.50;1.67;;;;;;;;;;5017619;28;59234;-78
2024/02/18 13:19:59;;;;;;;5.20;1.73;;;;;;;;;;5016499;28;58747;-77
2024/02/18 13:22:24;;;;;;;3.55;1.70;;;;;;;;;;5016686;28;60043;-79
2024/02/18 13:24:49;;;;;;;3.37;1.30;;;;;;;;;;5016568;28;58958;-79
2024/02/18 13:27:15;;;;;;;1.93;1.20;;;;;;;;;;5026239;28;58491;-79
2024/02/18 13:29:41;;;;;;;2.43;1.63;;;;;;;;;;5018227;28;58392;-79
2024/02/18 13:32:06;;;;;;;4.15;1.52;;;;;;;;;;5010994;28;58422;-79
2024/02/18 13:34:31;;;;;;;4.75;2.33;;;;;;;;;;5006298;28;59196;-80
2024/02/18 13:36:58;;;;;;;5.57;2.63;;;;;;;;;;5012514;28;58689;-79
2024/02/18 13:39:24;;;;;;;8.93;3.22;;;;;;;;;;5015579;28;58402;-78
2024/02/18 13:41:49;;;;;;;8.05;3.35;;;;;;;;;;5017219;28;59670;-79
2024/02/18 13:44:14;;;;;;;12.23;2.73;;;;;;;;;;5019809;28;58692;-79
2024/02/18 13:46:40;;;;;;;8.87;4.00;;;;;;;;;;5023124;28;58519;-80
2024/02/18 13:49:06;;;;;;;10.90;3.72;;;;;;;;;;5017521;28;59087;-80
2024/02/18 13:51:32;;;;;;;7.83;3.10;;;;;;;;;;5015722;28;58279;-78
2024/02/18 13:53:57;;;;;;;8.63;4.35;;;;;;;;;;5016253;28;59336;-80
2024/02/18 13:56:23;;;;;;;10.50;4.03;;;;;;;;;;5016903;28;59992;-79
2024/02/18 13:58:48;;;;;;;13.40;4.37;;;;;;;;;;5019555;28;58468;-77
2024/02/18 14:01:13;;;;;;;14.63;3.70;;;;;;;;;;5019375;28;59258;-79
2024/02/18 14:03:40;;;;;;;7.47;3.58;;;;;;;;;;5013752;28;58609;-78
2024/02/18 14:06:05;;;;;;;10.37;4.63;;;;;;;;;;5019660;28;58421;-80
2024/02/18 14:08:31;;;;;;;9.53;4.97;;;;;;;;;;5016323;28;61564;-72
2024/02/18 14:10:56;;;;;;;10.15;4.10;;;;;;;;;;5017378;28;58493;-72
2024/02/18 14:13:22;;;;;;;14.43;4.82;;;;;;;;;;5016443;28;58736;-73
2024/02/18 14:15:47;;;;;;;9.35;4.07;;;;;;;;;;5015233;28;59718;-72
2024/02/18 14:18:14;;;;;;;13.75;5.35;;;;;;;;;;5014844;28;58354;-72
2024/02/18 14:20:42;;;;;;;13.52;4.90;;;;;;;;;;5019749;28;59540;-72
2024/02/18 14:23:07;;;;;;;10.57;5.18;;;;;;;;;;5018292;28;60093;-72
2024/02/18 14:25:33;;;;;;;17.80;5.93;;;;;;;;;;5014061;28;58496;-74
2024/02/18 14:27:58;;;;;;;14.60;4.80;;;;;;;;;;5016304;28;59430;-72
2024/02/18 14:30:23;;;;;;;12.23;5.13;;;;;;;;;;5025784;28;58261;-72
2024/02/18 14:32:48;;;;;;;10.38;4.10;;;;;;;;;;5024543;28;60039;-73